sensor_id;sensor_type;location;lat;lon;timestamp;pressure;altitude;pressure_sealevel;temperature;humidity
69957;BME280;57283;54.816;9.482;2022-12-08T00:01:29;100225.19;;;-0.11;100.00
69957;BME280;57283;54.816;9.482;2022-12-08T00:03:58;100227.72;;;-0.14;100.00
69957;BME280;57283;54.816;9.482;2022-12-08T00:06:29;100219.91;;;-0.26;100.00
69957;BME280;57283;54.816;9.482;2022-12-08T00:09:17;100215.63;;;-0.27;100.00
69957;BME280;57283;54.816;9.482;2022-12-08T00:11:51;100220.84;;;-0.16;100.00
69957;BME280;57283;54.816;9.482;2022-12-08T00:14:22;100155.53;;;-0.56;100.00
69957;BME280;57283;54.816;9.482;2022-12-08T00:16:50;100222.56;;;-0.18;100.00
69957;BME280;57283;54.816;9.482;2022-12-08T00:19:18;100227.69;;;-0.18;100.00
69957;BME280;57283;54.816;9.482;2022-12-08T00:21:47;100226.69;;;-0.37;100.00
69957;BME280;57283;54.816;9.482;2022-12-08T00:24:15;100230.09;;;-0.33;100.00
69957;BME280;57283;54.816;9.482;2022-12-08T00:26:43;100222.31;;;-0.44;100.00
69957;BME280;57283;54.816;9.482;2022-12-08T00:29:12;100227.38;;;-0.53;100.00
69957;BME280;57283;54.816;9.482;2022-12-08T00:31:43;100220.38;;;-0.66;100.00
69957;BME280;57283;54.816;9.482;2022-12-08T00:34:11;100223.81;;;-0.64;100.00
69957;BME280;57283;54.816;9.482;2022-12-08T00:36:39;100225.53;;;-0.63;100.00
69957;BME280;57283;54.816;9.482;2022-12-08T00:39:09;100143.06;;;-1.09;100.00
69957;BME280;57283;54.816;9.482;2022-12-08T00:41:37;100210.97;;;-0.71;100.00
69957;BME280;57283;54.816;9.482;2022-12-08T00:44:23;100204.97;;;-0.73;100.00
69957;BME280;57283;54.816;9.482;2022-12-08T00:46:50;100202.41;;;-0.71;100.00
69957;BME280;57283;54.816;9.482;2022-12-08T00:49:19;100199.03;;;-0.65;100.00
69957;BME280;57283;54.816;9.482;2022-12-08T00:51:47;100200.75;;;-0.63;100.00
69957;BME280;57283;54.816;9.482;2022-12-08T00:54:16;100194.75;;;-0.66;100.00
69957;BME280;57283;54.816;9.482;2022-12-08T00:56:44;100185.34;;;-0.69;100.00
69957;BME280;57283;54.816;9.482;2022-12-08T00:59:12;100190.47;;;-0.69;100.00
69957;BME280;57283;54.816;9.482;2022-12-08T01:01:42;100195.59;;;-0.66;100.00
69957;BME280;57283;54.816;9.482;2022-12-08T01:04:13;100198.19;;;-0.64;100.00
69957;BME280;57283;54.816;9.482;2022-12-08T01:06:42;100195.63;;;-0.64;100.00
69957;BME280;57283;54.816;9.482;2022-12-08T01:09:11;100175.06;;;-0.72;100.00
69957;BME280;57283;54.816;9.482;2022-12-08T01:11:41;100180.34;;;-0.55;100.00
69957;BME280;57283;54.816;9.482;2022-12-08T01:14:10;100191.41;;;-0.59;100.00
69957;BME280;57283;54.816;9.482;2022-12-08T01:16:38;100192.34;;;-0.53;100.00
69957;BME280;57283;54.816;9.482;2022-12-08T01:19:08;100196.63;;;-0.49;100.00
69957;BME280;57283;54.816;9.482;2022-12-08T01:21:38;100197.63;;;-0.30;100.00
69957;BME280;57283;54.816;9.482;2022-12-08T01:24:08;100197.69;;;-0.27;100.00
69957;BME280;57283;54.816;9.482;2022-12-08T01:26:37;100192.53;;;-0.28;100.00
69957;BME280;57283;54.816;9.482;2022-12-08T01:29:06;100199.44;;;-0.17;100.00
69957;BME280;57283;54.816;9.482;2022-12-08T01:31:34;100184.13;;;-0.11;100.00
69957;BME280;57283;54.816;9.482;2022-12-08T01:34:02;100066.28;;;-0.98;100.00
69957;BME280;57283;54.816;9.482;2022-12-08T01:36:31;100168.53;;;-0.32;100.00
69957;BME280;57283;54.816;9.482;2022-12-08T01:39:00;100145.31;;;-0.53;100.00
69957;BME280;57283;54.816;9.482;2022-12-08T01:41:33;100143.69;;;-0.42;100.00
69957;BME280;57283;54.816;9.482;2022-12-08T01:44:45;100153.13;;;-0.40;100.00
69957;BME280;57283;54.816;9.482;2022-12-08T01:46:52;100171.16;;;-0.29;100.00
69957;BME280;57283;54.816;9.482;2022-12-08T01:49:22;100118.78;;;-0.55;100.00
69957;BME280;57283;54.816;9.482;2022-12-08T01:51:56;100132.59;;;-0.38;100.00
69957;BME280;57283;54.816;9.482;2022-12-08T01:54:27;100157.44;;;-0.31;100.00
69957;BME280;57283;54.816;9.482;2022-12-08T01:56:59;100151.41;;;-0.39;100.00
69957;BME280;57283;54.816;9.482;2022-12-08T01:59:29;100148.88;;;-0.36;100.00
69957;BME280;57283;54.816;9.482;2022-12-08T02:02:00;100148.91;;;-0.30;100.00
69957;BME280;57283;54.816;9.482;2022-12-08T02:04:28;100153.19;;;-0.27;100.00
69957;BME280;57283;54.816;9.482;2022-12-08T02:06:56;100133.50;;;-0.30;100.00
69957;BME280;57283;54.816;9.482;2022-12-08T02:09:34;100144.69;;;-0.23;100.00
69957;BME280;57283;54.816;9.482;2022-12-08T02:12:02;100139.63;;;-0.13;100.00
69957;BME280;57283;54.816;9.482;2022-12-08T02:14:30;100139.66;;;-0.08;100.00
69957;BME280;57283;54.816;9.482;2022-12-08T02:17:04;100139.69;;;-0.02;100.00
69957;BME280;57283;54.816;9.482;2022-12-08T02:19:59;100102.69;;;-0.36;100.00
69957;BME280;57283;54.816;9.482;2022-12-08T02:22:39;100140.53;;;-0.05;100.00
69957;BME280;57283;54.816;9.482;2022-12-08T02:25:18;100142.28;;;-0.01;100.00
69957;BME280;57283;54.816;9.482;2022-12-08T02:27:57;100138.75;;;-0.12;100.00
69957;BME280;57283;54.816;9.482;2022-12-08T02:30:32;100131.97;;;-0.05;100.00
69957;BME280;57283;54.816;9.482;2022-12-08T02:36:13;100150.63;;;-0.29;100.00
69957;BME280;57283;54.816;9.482;2022-12-08T02:38:47;100140.47;;;-0.11;100.00
69957;BME280;57283;54.816;9.482;2022-12-08T02:41:26;100137.13;;;-0.04;100.00
69957;BME280;57283;54.816;9.482;2022-12-08T02:44:00;100146.50;;;-0.07;100.00
69957;BME280;57283;54.816;9.482;2022-12-08T02:46:32;100141.38;;;-0.07;100.00
69957;BME280;57283;54.816;9.482;2022-12-08T02:49:02;100149.91;;;-0.08;100.00
69957;BME280;57283;54.816;9.482;2022-12-08T02:51:32;100143.91;;;-0.10;100.00
69957;BME280;57283;54.816;9.482;2022-12-08T02:54:01;100132.88;;;0.00;100.00
69957;BME280;57283;54.816;9.482;2022-12-08T02:56:40;100114.84;;;-0.06;100.00
69957;BME280;57283;54.816;9.482;2022-12-08T02:59:23;100128.50;;;-0.12;100.00
69957;BME280;57283;54.816;9.482;2022-12-08T03:02:09;100128.53;;;-0.07;100.00
69957;BME280;57283;54.816;9.482;2022-12-08T03:04:44;100129.44;;;0.04;100.00
69957;BME280;57283;54.816;9.482;2022-12-08T03:07:21;100121.72;;;0.03;100.00
69957;BME280;57283;54.816;9.482;2022-12-08T03:09:53;100121.72;;;-0.04;100.00
69957;BME280;57283;54.816;9.482;2022-12-08T03:12:29;100112.34;;;0.03;100.00
69957;BME280;57283;54.816;9.482;2022-12-08T03:15:02;100116.53;;;-0.10;100.00
69957;BME280;57283;54.816;9.482;2022-12-08T03:17:31;100111.38;;;-0.13;100.00
69957;BME280;57283;54.816;9.482;2022-12-08T03:20:03;100098.56;;;-0.13;100.00
69957;BME280;57283;54.816;9.482;2022-12-08T03:22:36;100113.97;;;-0.11;100.00
69957;BME280;57283;54.816;9.482;2022-12-08T03:25:07;100113.06;;;-0.15;100.00
69957;BME280;57283;54.816;9.482;2022-12-08T03:27:35;100120.81;;;-0.09;100.00
69957;BME280;57283;54.816;9.482;2022-12-08T03:30:04;100104.56;;;-0.11;100.00
69957;BME280;57283;54.816;9.482;2022-12-08T03:32:36;100106.31;;;-0.04;100.00
69957;BME280;57283;54.816;9.482;2022-12-08T03:35:10;100094.25;;;-0.17;100.00
69957;BME280;57283;54.816;9.482;2022-12-08T03:37:41;100100.25;;;-0.18;100.00
69957;BME280;57283;54.816;9.482;2022-12-08T03:40:12;100095.19;;;-0.04;100.00
69957;BME280;57283;54.816;9.482;2022-12-08T03:42:40;100101.19;;;0.03;100.00
69957;BME280;57283;54.816;9.482;2022-12-08T03:45:09;100086.66;;;0.03;100.00
69957;BME280;57283;54.816;9.482;2022-12-08T03:47:37;100095.13;;;-0.15;100.00
69957;BME280;57283;54.816;9.482;2022-12-08T03:50:06;100085.75;;;-0.07;100.00
69957;BME280;57283;54.816;9.482;2022-12-08T03:52:34;100084.94;;;0.00;100.00
69957;BME280;57283;54.816;9.482;2022-12-08T03:55:04;100079.81;;;0.02;100.00
69957;BME280;57283;54.816;9.482;2022-12-08T03:57:32;100073.81;;;-0.05;100.00
69957;BME280;57283;54.816;9.482;2022-12-08T04:00:00;100087.53;;;-0.01;100.00
69957;BME280;57283;54.816;9.482;2022-12-08T04:02:28;100082.25;;;-0.24;100.00
69957;BME280;57283;54.816;9.482;2022-12-08T04:04:56;100096.91;;;-0.03;100.00
69957;BME280;57283;54.816;9.482;2022-12-08T04:07:24;100092.63;;;-0.04;100.00
69957;BME280;57283;54.816;9.482;2022-12-08T04:09:52;100098.53;;;-0.19;100.00
69957;BME280;57283;54.816;9.482;2022-12-08T04:12:21;100090.88;;;-0.10;100.00
69957;BME280;57283;54.816;9.482;2022-12-08T04:14:49;100090.91;;;-0.04;100.00
69957;BME280;57283;54.816;9.482;2022-12-08T04:17:16;100090.84;;;-0.13;100.00
69957;BME280;57283;54.816;9.482;2022-12-08T04:19:44;100092.59;;;-0.09;100.00
69957;BME280;57283;54.816;9.482;2022-12-08T04:22:12;100050.63;;;-0.21;100.00
69957;BME280;57283;54.816;9.482;2022-12-08T04:24:40;100089.16;;;-0.11;100.00
69957;BME280;57283;54.816;9.482;2022-12-08T04:27:08;100102.97;;;0.10;100.00
69957;BME280;57283;54.816;9.482;2022-12-08T04:29:37;100089.25;;;0.05;100.00
69957;BME280;57283;54.816;9.482;2022-12-08T04:32:05;100099.56;;;0.11;100.00
69957;BME280;57283;54.816;9.482;2022-12-08T04:34:33;100097.84;;;0.13;100.00
69957;BME280;57283;54.816;9.482;2022-12-08T04:37:01;100096.91;;;0.02;100.00
69957;BME280;57283;54.816;9.482;2022-12-08T04:39:29;100093.53;;;0.07;100.00
69957;BME280;57283;54.816;9.482;2022-12-08T04:41:56;100081.56;;;0.08;100.00
69957;BME280;57283;54.816;9.482;2022-12-08T04:44:24;100090.16;;;0.16;100.00
69957;BME280;57283;54.816;9.482;2022-12-08T04:46:54;100078.16;;;0.18;100.00
69957;BME280;57283;54.816;9.482;2022-12-08T04:49:22;100044.72;;;-0.04;100.00
69957;BME280;57283;54.816;9.482;2022-12-08T04:51:50;100072.13;;;0.04;100.00
69957;BME280;57283;54.816;9.482;2022-12-08T04:54:18;100073.84;;;0.08;100.00
69957;BME280;57283;54.816;9.482;2022-12-08T04:56:46;100056.72;;;0.04;100.00
69957;BME280;57283;54.816;9.482;2022-12-08T04:59:13;100054.13;;;0.02;100.00
69957;BME280;57283;54.816;9.482;2022-12-08T05:01:41;99988.03;;;-0.49;100.00
69957;BME280;57283;54.816;9.482;2022-12-08T05:04:11;100067.88;;;0.10;100.00
69957;BME280;57283;54.816;9.482;2022-12-08T05:06:39;100065.31;;;0.09;100.00
69957;BME280;57283;54.816;9.482;2022-12-08T05:09:06;100067.84;;;0.04;100.00
69957;BME280;57283;54.816;9.482;2022-12-08T05:11:35;100072.13;;;0.04;100.00
69957;BME280;57283;54.816;9.482;2022-12-08T05:14:15;100079.84;;;0.08;100.00
69957;BME280;57283;54.816;9.482;2022-12-08T05:16:44;100076.28;;;-0.15;100.00
69957;BME280;57283;54.816;9.482;2022-12-08T05:19:13;100067.81;;;-0.05;100.00
69957;BME280;57283;54.816;9.482;2022-12-08T05:21:41;100071.16;;;-0.14;100.00
69957;BME280;57283;54.816;9.482;2022-12-08T05:24:09;99989.69;;;-0.57;100.00
69957;BME280;57283;54.816;9.482;2022-12-08T05:26:37;100066.00;;;-0.17;100.00
69957;BME280;57283;54.816;9.482;2022-12-08T05:29:05;100048.81;;;-0.33;100.00
69957;BME280;57283;54.816;9.482;2022-12-08T05:31:33;100064.25;;;-0.28;100.00
69957;BME280;57283;54.816;9.482;2022-12-08T05:34:01;100056.41;;;-0.48;100.00
69957;BME280;57283;54.816;9.482;2022-12-08T05:36:30;100062.41;;;-0.51;100.00
69957;BME280;57283;54.816;9.482;2022-12-08T05:38:58;100053.75;;;-0.62;100.00
69957;BME280;57283;54.816;9.482;2022-12-08T05:41:26;100058.91;;;-0.59;100.00
69957;BME280;57283;54.816;9.482;2022-12-08T05:43:54;100081.97;;;-0.60;100.00
69957;BME280;57283;54.816;9.482;2022-12-08T05:46:26;100079.38;;;-0.68;100.00
69957;BME280;57283;54.816;9.482;2022-12-08T05:48:54;100084.47;;;-0.71;100.00
69957;BME280;57283;54.816;9.482;2022-12-08T05:51:23;100087.06;;;-0.69;100.00
69957;BME280;57283;54.816;9.482;2022-12-08T05:53:52;100081.91;;;-0.73;100.00
69957;BME280;57283;54.816;9.482;2022-12-08T05:56:21;100087.06;;;-0.66;100.00
69957;BME280;57283;54.816;9.482;2022-12-08T05:58:49;100069.94;;;-0.71;100.00
69957;BME280;57283;54.816;9.482;2022-12-08T06:01:19;100075.22;;;-0.49;100.00
69957;BME280;57283;54.816;9.482;2022-12-08T06:03:47;100076.97;;;-0.45;100.00
69957;BME280;57283;54.816;9.482;2022-12-08T06:06:15;100051.16;;;-0.66;100.00
69957;BME280;57283;54.816;9.482;2022-12-08T06:08:43;100076.13;;;-0.44;100.00
69957;BME280;57283;54.816;9.482;2022-12-08T06:11:18;100071.84;;;-0.42;100.00
69957;BME280;57283;54.816;9.482;2022-12-08T06:13:46;100080.41;;;-0.43;100.00
69957;BME280;57283;54.816;9.482;2022-12-08T06:16:15;100076.16;;;-0.38;100.00
69957;BME280;57283;54.816;9.482;2022-12-08T06:18:43;100081.34;;;-0.30;100.00
69957;BME280;57283;54.816;9.482;2022-12-08T06:21:12;100076.22;;;-0.27;100.00
69957;BME280;57283;54.816;9.482;2022-12-08T06:23:41;100059.06;;;-0.38;100.00
69957;BME280;57283;54.816;9.482;2022-12-08T06:26:12;100072.78;;;-0.34;100.00
69957;BME280;57283;54.816;9.482;2022-12-08T06:28:42;100082.25;;;-0.21;100.00
69957;BME280;57283;54.816;9.482;2022-12-08T06:31:13;100093.38;;;-0.23;100.00
69957;BME280;57283;54.816;9.482;2022-12-08T06:33:42;100093.41;;;-0.16;100.00
69957;BME280;57283;54.816;9.482;2022-12-08T06:36:11;100044.53;;;-0.37;100.00
69957;BME280;57283;54.816;9.482;2022-12-08T06:38:39;100094.28;;;-0.11;100.00
69957;BME280;57283;54.816;9.482;2022-12-08T06:41:10;100089.13;;;-0.20;100.00
69957;BME280;57283;54.816;9.482;2022-12-08T06:43:39;100097.72;;;-0.09;100.00
69957;BME280;57283;54.816;9.482;2022-12-08T06:46:10;100103.69;;;-0.13;100.00
69957;BME280;57283;54.816;9.482;2022-12-08T06:48:38;100101.94;;;-0.15;100.00
69957;BME280;57283;54.816;9.482;2022-12-08T06:51:08;100104.53;;;-0.14;100.00
69957;BME280;57283;54.816;9.482;2022-12-08T06:53:36;100118.22;;;-0.13;100.00
69957;BME280;57283;54.816;9.482;2022-12-08T06:56:05;100125.06;;;-0.14;100.00
69957;BME280;57283;54.816;9.482;2022-12-08T06:58:33;100122.50;;;-0.12;100.00
69957;BME280;57283;54.816;9.482;2022-12-08T07:01:06;100060.69;;;-0.50;100.00
69957;BME280;57283;54.816;9.482;2022-12-08T07:03:36;100127.69;;;-0.06;100.00
69957;BME280;57283;54.816;9.482;2022-12-08T07:06:05;100138.81;;;-0.06;100.00
69957;BME280;57283;54.816;9.482;2022-12-08T07:08:33;100134.56;;;0.03;100.00
69957;BME280;57283;54.816;9.482;2022-12-08T07:11:05;100132.84;;;-0.03;100.00
69957;BME280;57283;54.816;9.482;2022-12-08T07:13:34;100138.84;;;0.02;100.00
69957;BME280;57283;54.816;9.482;2022-12-08T07:16:04;100144.81;;;-0.05;100.00
69957;BME280;57283;54.816;9.482;2022-12-08T07:18:32;100139.63;;;-0.10;100.00
69957;BME280;57283;54.816;9.482;2022-12-08T07:21:06;100148.22;;;-0.08;100.00
69957;BME280;57283;54.816;9.482;2022-12-08T07:23:34;100155.94;;;-0.05;100.00
69957;BME280;57283;54.816;9.482;2022-12-08T07:26:04;100154.28;;;0.07;100.00
69957;BME280;57283;54.816;9.482;2022-12-08T07:28:34;100154.31;;;0.10;100.00
69957;BME280;57283;54.816;9.482;2022-12-08T07:31:03;100159.44;;;0.08;100.00
69957;BME280;57283;54.816;9.482;2022-12-08T07:33:32;100161.09;;;0.02;100.00
69957;BME280;57283;54.816;9.482;2022-12-08T07:36:03;100157.69;;;0.06;100.00
69957;BME280;57283;54.816;9.482;2022-12-08T07:38:33;100160.31;;;0.10;100.00
69957;BME280;57283;54.816;9.482;2022-12-08T07:41:01;100160.22;;;0.01;100.00
69957;BME280;57283;54.816;9.482;2022-12-08T07:43:29;100145.72;;;0.08;100.00
69957;BME280;57283;54.816;9.482;2022-12-08T07:45:56;100155.97;;;0.05;100.00
69957;BME280;57283;54.816;9.482;2022-12-08T07:48:26;100159.50;;;0.16;100.00
69957;BME280;57283;54.816;9.482;2022-12-08T07:50:59;100161.19;;;0.14;100.00
69957;BME280;57283;54.816;9.482;2022-12-08T07:53:28;100125.09;;;-0.08;100.00
69957;BME280;57283;54.816;9.482;2022-12-08T07:55:57;100153.41;;;0.03;100.00
69957;BME280;57283;54.816;9.482;2022-12-08T07:58:25;100153.47;;;0.12;100.00
69957;BME280;57283;54.816;9.482;2022-12-08T08:00:53;99999.84;;;-0.76;100.00
69957;BME280;57283;54.816;9.482;2022-12-08T08:03:21;100149.19;;;0.10;100.00
69957;BME280;57283;54.816;9.482;2022-12-08T08:05:49;100149.19;;;0.10;100.00
69957;BME280;57283;54.816;9.482;2022-12-08T08:08:17;100150.88;;;0.08;100.00
69957;BME280;57283;54.816;9.482;2022-12-08T08:10:45;100097.63;;;-0.27;100.00
69957;BME280;57283;54.816;9.482;2022-12-08T08:13:15;100144.78;;;-0.08;100.00
69957;BME280;57283;54.816;9.482;2022-12-08T08:15:43;100140.44;;;-0.20;100.00
69957;BME280;57283;54.816;9.482;2022-12-08T08:18:11;100160.94;;;-0.23;100.00
69957;BME280;57283;54.816;9.482;2022-12-08T08:20:39;100135.13;;;-0.44;100.00
69957;BME280;57283;54.816;9.482;2022-12-08T08:23:07;100118.75;;;-0.58;100.00
69957;BME280;57283;54.816;9.482;2022-12-08T08:25:35;100160.34;;;0.18;100.00
69957;BME280;57283;54.816;9.482;2022-12-08T08:28:02;100157.91;;;0.42;100.00
69957;BME280;57283;54.816;9.482;2022-12-08T08:30:32;100125.41;;;0.55;100.00
69957;BME280;57283;54.816;9.482;2022-12-08T08:33:00;100165.81;;;0.95;100.00
69957;BME280;57283;54.816;9.482;2022-12-08T08:35:27;100165.84;;;1.09;100.00
69957;BME280;57283;54.816;9.482;2022-12-08T08:37:56;100151.31;;;1.73;100.00
69957;BME280;57283;54.816;9.482;2022-12-08T08:40:24;100147.34;;;3.22;100.00
69957;BME280;57283;54.816;9.482;2022-12-08T08:42:51;100151.31;;;1.93;100.00
69957;BME280;57283;54.816;9.482;2022-12-08T08:45:19;100140.28;;;3.52;100.00
69957;BME280;57283;54.816;9.482;2022-12-08T08:47:49;100161.47;;;3.89;100.00
69957;BME280;57283;54.816;9.482;2022-12-08T08:50:17;100147.47;;;5.46;100.00
69957;BME280;57283;54.816;9.482;2022-12-08T08:52:44;100135.34;;;4.89;100.00
69957;BME280;57283;54.816;9.482;2022-12-08T08:55:12;100147.16;;;5.09;100.00
69957;BME280;57283;54.816;9.482;2022-12-08T08:57:41;100147.84;;;5.20;100.00
69957;BME280;57283;54.816;9.482;2022-12-08T09:00:10;100144.69;;;7.35;100.00
69957;BME280;57283;54.816;9.482;2022-12-08T09:02:38;100141.38;;;6.48;100.00
69957;BME280;57283;54.816;9.482;2022-12-08T09:05:07;100141.50;;;8.27;100.00
69957;BME280;57283;54.816;9.482;2022-12-08T09:07:35;100141.16;;;8.07;100.00
69957;BME280;57283;54.816;9.482;2022-12-08T09:10:04;100138.31;;;11.76;100.00
69957;BME280;57283;54.816;9.482;2022-12-08T09:12:33;100134.06;;;13.11;100.00
69957;BME280;57283;54.816;9.482;2022-12-08T09:15:01;100133.16;;;13.12;82.75
69957;BME280;57283;54.816;9.482;2022-12-08T09:17:29;100137.25;;;10.70;100.00
69957;BME280;57283;54.816;9.482;2022-12-08T09:19:56;100152.09;;;8.54;100.00
69957;BME280;57283;54.816;9.482;2022-12-08T09:22:26;100109.84;;;8.44;100.00
69957;BME280;57283;54.816;9.482;2022-12-08T09:24:54;100133.72;;;9.71;100.00
69957;BME280;57283;54.816;9.482;2022-12-08T09:27:22;100132.16;;;8.20;100.00
69957;BME280;57283;54.816;9.482;2022-12-08T09:29:49;100145.34;;;6.66;100.00
69957;BME280;57283;54.816;9.482;2022-12-08T09:32:17;100103.16;;;8.03;100.00
69957;BME280;57283;54.816;9.482;2022-12-08T09:34:45;100135.91;;;9.84;100.00
69957;BME280;57283;54.816;9.482;2022-12-08T09:37:17;100137.75;;;11.68;92.94
69957;BME280;57283;54.816;9.482;2022-12-08T09:39:47;100147.34;;;8.68;100.00
69957;BME280;57283;54.816;9.482;2022-12-08T09:42:19;100136.63;;;7.09;100.00
69957;BME280;57283;54.816;9.482;2022-12-08T09:44:54;100156.44;;;7.51;100.00
69957;BME280;57283;54.816;9.482;2022-12-08T09:47:27;100143.38;;;6.77;100.00
69957;BME280;57283;54.816;9.482;2022-12-08T09:50:04;100095.13;;;7.43;100.00
69957;BME280;57283;54.816;9.482;2022-12-08T09:52:37;100126.91;;;8.54;100.00
69957;BME280;57283;54.816;9.482;2022-12-08T09:55:16;100145.19;;;7.14;100.00
69957;BME280;57283;54.816;9.482;2022-12-08T09:57:52;100134.75;;;8.20;100.00
69957;BME280;57283;54.816;9.482;2022-12-08T10:00:22;100081.56;;;12.94;100.00
69957;BME280;57283;54.816;9.482;2022-12-08T10:02:50;100119.88;;;13.53;61.74
69957;BME280;57283;54.816;9.482;2022-12-08T10:05:18;100125.31;;;10.63;76.91
69957;BME280;57283;54.816;9.482;2022-12-08T10:07:52;100109.28;;;14.74;75.60
69957;BME280;57283;54.816;9.482;2022-12-08T10:10:35;100108.63;;;13.68;59.96
69957;BME280;57283;54.816;9.482;2022-12-08T10:13:10;100101.22;;;11.01;70.43
69957;BME280;57283;54.816;9.482;2022-12-08T10:15:46;100125.28;;;10.14;100.00
69957;BME280;57283;54.816;9.482;2022-12-08T10:18:17;100129.22;;;10.98;100.00
69957;BME280;57283;54.816;9.482;2022-12-08T10:20:49;100131.91;;;8.29;100.00
69957;BME280;57283;54.816;9.482;2022-12-08T10:23:23;100116.00;;;8.40;100.00
69957;BME280;57283;54.816;9.482;2022-12-08T10:25:59;100123.06;;;8.67;100.00
69957;BME280;57283;54.816;9.482;2022-12-08T10:28:28;100123.63;;;7.47;100.00
69957;BME280;57283;54.816;9.482;2022-12-08T10:30:56;100130.66;;;6.65;100.00
69957;BME280;57283;54.816;9.482;2022-12-08T10:33:24;100146.28;;;5.67;100.00
69957;BME280;57283;54.816;9.482;2022-12-08T10:35:56;100133.25;;;6.20;100.00
69957;BME280;57283;54.816;9.482;2022-12-08T10:38:26;100084.91;;;6.19;100.00
69957;BME280;57283;54.816;9.482;2022-12-08T10:41:01;100109.44;;;6.86;100.00
69957;BME280;57283;54.816;9.482;2022-12-08T10:43:32;100119.41;;;6.64;100.00
69957;BME280;57283;54.816;9.482;2022-12-08T10:46:09;100130.75;;;7.00;100.00
69957;BME280;57283;54.816;9.482;2022-12-08T10:48:47;100123.69;;;6.67;100.00
69957;BME280;57283;54.816;9.482;2022-12-08T10:51:28;100103.97;;;5.66;100.00
69957;BME280;57283;54.816;9.482;2022-12-08T10:53:56;100137.81;;;6.08;100.00
69957;BME280;57283;54.816;9.482;2022-12-08T10:56:28;100132.81;;;5.45;100.00
69957;BME280;57283;54.816;9.482;2022-12-08T10:59:12;100130.34;;;5.88;100.00
69957;BME280;57283;54.816;9.482;2022-12-08T11:01:43;100145.06;;;5.35;100.00
69957;BME280;57283;54.816;9.482;2022-12-08T11:04:16;100138.78;;;4.88;100.00
69957;BME280;57283;54.816;9.482;2022-12-08T11:06:44;100147.06;;;5.15;100.00
69957;BME280;57283;54.816;9.482;2022-12-08T11:09:30;100137.44;;;5.78;100.00
69957;BME280;57283;54.816;9.482;2022-12-08T11:12:07;100136.81;;;5.64;100.00
69957;BME280;57283;54.816;9.482;2022-12-08T11:14:45;100114.41;;;5.61;100.00
69957;BME280;57283;54.816;9.482;2022-12-08T11:17:16;100141.97;;;6.18;100.00
69957;BME280;57283;54.816;9.482;2022-12-08T11:19:45;100138.50;;;6.17;100.00
69957;BME280;57283;54.816;9.482;2022-12-08T11:22:23;100137.34;;;6.34;100.00
69957;BME280;57283;54.816;9.482;2022-12-08T11:24:59;100144.44;;;7.07;100.00
69957;BME280;57283;54.816;9.482;2022-12-08T11:27:29;100112.69;;;6.11;100.00
69957;BME280;57283;54.816;9.482;2022-12-08T11:30:00;100093.66;;;4.46;100.00
69957;BME280;57283;54.816;9.482;2022-12-08T11:32:29;100141.69;;;5.84;100.00
69957;BME280;57283;54.816;9.482;2022-12-08T11:34:59;100133.47;;;5.56;100.00
69957;BME280;57283;54.816;9.482;2022-12-08T11:37:32;100135.53;;;5.91;100.00
69957;BME280;57283;54.816;9.482;2022-12-08T11:40:04;100123.81;;;4.49;100.00
69957;BME280;57283;54.816;9.482;2022-12-08T11:42:44;100149.69;;;5.13;100.00
69957;BME280;57283;54.816;9.482;2022-12-08T11:45:23;100144.19;;;4.73;100.00
69957;BME280;57283;54.816;9.482;2022-12-08T11:48:00;100146.44;;;4.98;100.00
69957;BME280;57283;54.816;9.482;2022-12-08T11:50:39;100143.16;;;6.00;100.00
69957;BME280;57283;54.816;9.482;2022-12-08T11:53:15;100147.34;;;6.53;100.00
69957;BME280;57283;54.816;9.482;2022-12-08T11:55:49;100143.13;;;6.02;100.00
69957;BME280;57283;54.816;9.482;2022-12-08T11:58:23;100135.72;;;6.28;100.00
69957;BME280;57283;54.816;9.482;2022-12-08T12:00:53;100137.75;;;5.58;100.00
69957;BME280;57283;54.816;9.482;2022-12-08T12:03:26;100151.59;;;5.57;100.00
69957;BME280;57283;54.816;9.482;2022-12-08T12:06:08;100154.31;;;5.51;100.00
69957;BME280;57283;54.816;9.482;2022-12-08T12:09:07;100157.16;;;5.87;100.00
69957;BME280;57283;54.816;9.482;2022-12-08T12:11:45;100153.78;;;5.83;100.00
69957;BME280;57283;54.816;9.482;2022-12-08T12:14:45;100143.19;;;5.99;100.00
69957;BME280;57283;54.816;9.482;2022-12-08T12:17:30;100139.13;;;5.27;100.00
69957;BME280;57283;54.816;9.482;2022-12-08T12:20:03;100157.81;;;4.86;100.00
69957;BME280;57283;54.816;9.482;2022-12-08T12:22:33;100162.50;;;4.53;100.00
69957;BME280;57283;54.816;9.482;2022-12-08T12:25:05;100156.53;;;4.50;100.00
69957;BME280;57283;54.816;9.482;2022-12-08T12:27:37;100149.53;;;4.58;100.00
69957;BME280;57283;54.816;9.482;2022-12-08T12:30:16;100118.34;;;4.70;100.00
69957;BME280;57283;54.816;9.482;2022-12-08T12:32:50;100155.91;;;4.28;100.00
69957;BME280;57283;54.816;9.482;2022-12-08T12:35:24;100149.91;;;4.25;100.00
69957;BME280;57283;54.816;9.482;2022-12-08T12:37:57;100149.03;;;4.26;100.00
69957;BME280;57283;54.816;9.482;2022-12-08T12:40:39;100116.75;;;3.85;100.00
69957;BME280;57283;54.816;9.482;2022-12-08T12:43:24;100119.28;;;3.88;100.00
69957;BME280;57283;54.816;9.482;2022-12-08T12:52:40;100152.38;;;3.43;100.00
69957;BME280;57283;54.816;9.482;2022-12-08T12:58:40;100161.94;;;3.32;100.00
69957;BME280;57283;54.816;9.482;2022-12-08T13:01:36;100158.63;;;3.06;100.00
69957;BME280;57283;54.816;9.482;2022-12-08T13:04:07;100163.06;;;2.83;100.00
69957;BME280;57283;54.816;9.482;2022-12-08T13:06:39;100152.84;;;2.61;100.00
69957;BME280;57283;54.816;9.482;2022-12-08T13:09:21;100154.56;;;2.59;100.00
69957;BME280;57283;54.816;9.482;2022-12-08T13:11:52;100159.84;;;2.23;100.00
69957;BME280;57283;54.816;9.482;2022-12-08T13:14:36;100154.75;;;1.98;100.00
69957;BME280;57283;54.816;9.482;2022-12-08T13:17:09;100170.22;;;1.66;100.00
69957;BME280;57283;54.816;9.482;2022-12-08T13:19:39;100174.50;;;1.48;100.00